GLO9812 SBGR-SBGL
Flight info
| Callsign | GLO9812 |
|---|---|
| Flight time | 0h 37m |
| Altitude | 27000 |
| Route | UREMI UZ42 VUREP |
| Aircraft | B738/M-SDFGIKLORWX/LB1 |
Departure
| Time | 2026-04-30 14:31 |
|---|---|
| Airport | São Paulo/Guarulhos–Governor André Franco Montoro International Airport (SBGR) |
Arrival
| Time | 2026-04-30 15:08 |
|---|---|
| Airport | Rio Galeão – Tom Jobim International Airport (SBGL) |
| Time | Latitude | Longitude | Altitude | Speed | Heading |
|---|---|---|---|---|---|
| 2026-04-30 14:03 | -23.42796 | -46.48067 | 2467 ft | 0 kts | 85° |
| 2026-04-30 14:24 | -23.42795 | -46.48095 | 2464 ft | 3 kts | 109° |
| 2026-04-30 14:24 | -23.42786 | -46.48115 | 2466 ft | 3 kts | 131° |
| 2026-04-30 14:25 | -23.42755 | -46.48136 | 2464 ft | 2 kts | 172° |
| 2026-04-30 14:25 | -23.42752 | -46.48137 | 2464 ft | 0 kts | 174° |
| 2026-04-30 14:27 | -23.42764 | -46.48136 | 2464 ft | 3 kts | 174° |
| 2026-04-30 14:28 | -23.42841 | -46.48128 | 2465 ft | 8 kts | 175° |
| 2026-04-30 14:28 | -23.42902 | -46.48128 | 2466 ft | 10 kts | 189° |
| 2026-04-30 14:28 | -23.42974 | -46.48138 | 2466 ft | 11 kts | 177° |
| 2026-04-30 14:28 | -23.43058 | -46.48130 | 2466 ft | 13 kts | 175° |
| 2026-04-30 14:29 | -23.43151 | -46.48265 | 2467 ft | 13 kts | 253° |
| 2026-04-30 14:29 | -23.43230 | -46.48386 | 2472 ft | 12 kts | 176° |
| 2026-04-30 14:30 | -23.43412 | -46.48275 | 2464 ft | 10 kts | 80° |
| 2026-04-30 14:31 | -23.43346 | -46.48029 | 2462 ft | 72 kts | 73° |
| 2026-04-30 14:31 | -23.42801 | -46.45969 | 2552 ft | 198 kts | 76° |
| 2026-04-30 14:31 | -23.42418 | -46.44430 | 3083 ft | 221 kts | 75° |
| 2026-04-30 14:32 | -23.41590 | -46.41160 | 4701 ft | 223 kts | 73° |
| 2026-04-30 14:32 | -23.41263 | -46.40067 | 4898 ft | 236 kts | 70° |
| 2026-04-30 14:32 | -23.40693 | -46.38308 | 5207 ft | 254 kts | 70° |
| 2026-04-30 14:33 | -23.40174 | -46.36413 | 5507 ft | 273 kts | 85° |
| 2026-04-30 14:33 | -23.41196 | -46.32326 | 6940 ft | 285 kts | 111° |
| 2026-04-30 14:33 | -23.41887 | -46.30295 | 7743 ft | 287 kts | 110° |
| 2026-04-30 14:34 | -23.42575 | -46.28225 | 8446 ft | 294 kts | 110° |
| 2026-04-30 14:34 | -23.43266 | -46.26116 | 9205 ft | 298 kts | 110° |
| 2026-04-30 14:34 | -23.43951 | -46.23957 | 9861 ft | 305 kts | 106° |
| 2026-04-30 14:34 | -23.44425 | -46.21687 | 10557 ft | 309 kts | 101° |
| 2026-04-30 14:35 | -23.45167 | -46.17070 | 11970 ft | 315 kts | 100° |
| 2026-04-30 14:35 | -23.45548 | -46.14705 | 12648 ft | 319 kts | 100° |
| 2026-04-30 14:35 | -23.45943 | -46.12314 | 13045 ft | 322 kts | 101° |
| 2026-04-30 14:36 | -23.46346 | -46.09924 | 13097 ft | 321 kts | 101° |
| 2026-04-30 14:36 | -23.46756 | -46.07527 | 13112 ft | 323 kts | 101° |
| 2026-04-30 14:36 | -23.47171 | -46.05117 | 13122 ft | 324 kts | 101° |
| 2026-04-30 14:36 | -23.47588 | -46.02702 | 13117 ft | 325 kts | 101° |
| 2026-04-30 14:37 | -23.48006 | -46.00283 | 13103 ft | 325 kts | 101° |
| 2026-04-30 14:37 | -23.48423 | -45.97863 | 13105 ft | 325 kts | 101° |
| 2026-04-30 14:37 | -23.48841 | -45.95439 | 13119 ft | 325 kts | 101° |
| 2026-04-30 14:37 | -23.49108 | -45.92998 | 13101 ft | 325 kts | 85° |
| 2026-04-30 14:38 | -23.48641 | -45.90624 | 13464 ft | 325 kts | 74° |
| 2026-04-30 14:38 | -23.48039 | -45.88229 | 14118 ft | 329 kts | 74° |
| 2026-04-30 14:38 | -23.47432 | -45.85821 | 14768 ft | 331 kts | 74° |
| 2026-04-30 14:38 | -23.46822 | -45.83385 | 15375 ft | 335 kts | 74° |
| 2026-04-30 14:39 | -23.46207 | -45.80913 | 15969 ft | 339 kts | 74° |
| 2026-04-30 14:39 | -23.45590 | -45.78419 | 16566 ft | 343 kts | 74° |
| 2026-04-30 14:39 | -23.44967 | -45.75887 | 17138 ft | 348 kts | 74° |
| 2026-04-30 14:40 | -23.43697 | -45.70719 | 18282 ft | 357 kts | 74° |
| 2026-04-30 14:40 | -23.43051 | -45.68090 | 18778 ft | 361 kts | 74° |
| 2026-04-30 14:40 | -23.42398 | -45.65434 | 19280 ft | 365 kts | 73° |
| 2026-04-30 14:40 | -23.41737 | -45.62751 | 19773 ft | 368 kts | 73° |
| 2026-04-30 14:41 | -23.41071 | -45.60041 | 20269 ft | 372 kts | 73° |
| 2026-04-30 14:41 | -23.40396 | -45.57302 | 20767 ft | 376 kts | 73° |
| 2026-04-30 14:41 | -23.39714 | -45.54537 | 21219 ft | 381 kts | 73° |
| 2026-04-30 14:41 | -23.39022 | -45.51738 | 21715 ft | 385 kts | 73° |
| 2026-04-30 14:42 | -23.38364 | -45.48906 | 22232 ft | 388 kts | 75° |
| 2026-04-30 14:42 | -23.37753 | -45.46031 | 22717 ft | 391 kts | 76° |
| 2026-04-30 14:42 | -23.37151 | -45.43126 | 23190 ft | 395 kts | 76° |
| 2026-04-30 14:42 | -23.36540 | -45.40191 | 23647 ft | 399 kts | 75° |
| 2026-04-30 14:43 | -23.35915 | -45.37233 | 24046 ft | 402 kts | 75° |
| 2026-04-30 14:43 | -23.35289 | -45.34301 | 24414 ft | 405 kts | 75° |
| 2026-04-30 14:43 | -23.34648 | -45.31307 | 24847 ft | 408 kts | 75° |
| 2026-04-30 14:43 | -23.34000 | -45.28292 | 25256 ft | 410 kts | 75° |
| 2026-04-30 14:44 | -23.33349 | -45.25258 | 25654 ft | 413 kts | 75° |
| 2026-04-30 14:44 | -23.32692 | -45.22206 | 26056 ft | 415 kts | 75° |
| 2026-04-30 14:44 | -23.32029 | -45.19124 | 26374 ft | 420 kts | 75° |
| 2026-04-30 14:44 | -23.31358 | -45.16007 | 26725 ft | 424 kts | 75° |
| 2026-04-30 14:45 | -23.30682 | -45.12868 | 27083 ft | 426 kts | 75° |
| 2026-04-30 14:45 | -23.30008 | -45.09735 | 27076 ft | 425 kts | 75° |
| 2026-04-30 14:45 | -23.29342 | -45.06648 | 27113 ft | 424 kts | 75° |
| 2026-04-30 14:45 | -23.28667 | -45.03522 | 27112 ft | 425 kts | 75° |
| 2026-04-30 14:46 | -23.27992 | -45.00398 | 26836 ft | 425 kts | 75° |
| 2026-04-30 14:46 | -23.27319 | -44.97287 | 26566 ft | 420 kts | 75° |
| 2026-04-30 14:46 | -23.26650 | -44.94199 | 26183 ft | 419 kts | 75° |
| 2026-04-30 14:46 | -23.25982 | -44.91116 | 25808 ft | 417 kts | 75° |
| 2026-04-30 14:47 | -23.25316 | -44.88053 | 25443 ft | 415 kts | 75° |
| 2026-04-30 14:47 | -23.24652 | -44.84999 | 25031 ft | 415 kts | 75° |
| 2026-04-30 14:47 | -23.23988 | -44.81945 | 24639 ft | 414 kts | 75° |
| 2026-04-30 14:47 | -23.23330 | -44.78923 | 24288 ft | 411 kts | 75° |
| 2026-04-30 14:48 | -23.22668 | -44.75886 | 23889 ft | 411 kts | 75° |
| 2026-04-30 14:48 | -23.22009 | -44.72862 | 23437 ft | 412 kts | 75° |
| 2026-04-30 14:48 | -23.21348 | -44.69835 | 23023 ft | 410 kts | 75° |
| 2026-04-30 14:48 | -23.20692 | -44.66831 | 22621 ft | 407 kts | 75° |
| 2026-04-30 14:49 | -23.20037 | -44.63839 | 22232 ft | 405 kts | 75° |
| 2026-04-30 14:49 | -23.19387 | -44.60870 | 21866 ft | 402 kts | 75° |
| 2026-04-30 14:49 | -23.18750 | -44.57969 | 21517 ft | 399 kts | 75° |
| 2026-04-30 14:49 | -23.18080 | -44.55050 | 21145 ft | 396 kts | 70° |
| 2026-04-30 14:50 | -23.15862 | -44.49643 | 20417 ft | 389 kts | 60° |
| 2026-04-30 14:50 | -23.14649 | -44.47025 | 20050 ft | 387 kts | 60° |
| 2026-04-30 14:51 | -23.12257 | -44.41815 | 19288 ft | 384 kts | 61° |
| 2026-04-30 14:51 | -23.11083 | -44.39208 | 18911 ft | 384 kts | 62° |
| 2026-04-30 14:51 | -23.08765 | -44.33994 | 18118 ft | 382 kts | 62° |
| 2026-04-30 14:52 | -23.07616 | -44.31396 | 17718 ft | 380 kts | 62° |
| 2026-04-30 14:52 | -23.05361 | -44.26295 | 16974 ft | 375 kts | 62° |
| 2026-04-30 14:52 | -23.04235 | -44.23747 | 16607 ft | 372 kts | 62° |
| 2026-04-30 14:53 | -23.02002 | -44.18703 | 15880 ft | 367 kts | 62° |
| 2026-04-30 14:53 | -23.00901 | -44.16213 | 15507 ft | 364 kts | 62° |
| 2026-04-30 14:54 | -22.98716 | -44.11293 | 14805 ft | 360 kts | 62° |
| 2026-04-30 14:54 | -22.96557 | -44.06428 | 14097 ft | 355 kts | 62° |
| 2026-04-30 14:55 | -22.94438 | -44.01659 | 13331 ft | 351 kts | 63° |
| 2026-04-30 14:55 | -22.93382 | -43.99284 | 12969 ft | 349 kts | 63° |
| 2026-04-30 14:55 | -22.91301 | -43.94613 | 12271 ft | 335 kts | 63° |
| 2026-04-30 14:56 | -22.89339 | -43.90209 | 11604 ft | 314 kts | 63° |
| 2026-04-30 14:56 | -22.87480 | -43.86043 | 10969 ft | 300 kts | 64° |
| 2026-04-30 14:57 | -22.86570 | -43.84007 | 10669 ft | 299 kts | 64° |
| 2026-04-30 14:57 | -22.84764 | -43.79965 | 10189 ft | 293 kts | 64° |
| 2026-04-30 14:58 | -22.83007 | -43.76032 | 9696 ft | 288 kts | 64° |
| 2026-04-30 14:58 | -22.82132 | -43.74077 | 9386 ft | 288 kts | 64° |
| 2026-04-30 14:58 | -22.80599 | -43.70111 | 8728 ft | 282 kts | 76° |
| 2026-04-30 14:59 | -22.79749 | -43.66125 | 8347 ft | 254 kts | 77° |
| 2026-04-30 15:00 | -22.78609 | -43.61083 | 7932 ft | 210 kts | 76° |
| 2026-04-30 15:00 | -22.77907 | -43.58062 | 7354 ft | 206 kts | 76° |
| 2026-04-30 15:01 | -22.77138 | -43.55084 | 6744 ft | 204 kts | 67° |
| 2026-04-30 15:01 | -22.76769 | -43.54148 | 6551 ft | 203 kts | 66° |
| 2026-04-30 15:01 | -22.75506 | -43.51049 | 5963 ft | 189 kts | 65° |
| 2026-04-30 15:02 | -22.74986 | -43.49756 | 5633 ft | 186 kts | 65° |
| 2026-04-30 15:02 | -22.74472 | -43.48475 | 5297 ft | 185 kts | 65° |
| 2026-04-30 15:03 | -22.72979 | -43.44725 | 4467 ft | 173 kts | 65° |
| 2026-04-30 15:03 | -22.72051 | -43.42384 | 3966 ft | 161 kts | 64° |
| 2026-04-30 15:04 | -22.72081 | -43.40176 | 3337 ft | 162 kts | 134° |
| 2026-04-30 15:04 | -22.74008 | -43.37337 | 2466 ft | 151 kts | 125° |
| 2026-04-30 15:05 | -22.75843 | -43.34545 | 1841 ft | 151 kts | 125° |
| 2026-04-30 15:06 | -22.77054 | -43.32707 | 1418 ft | 148 kts | 126° |
| 2026-04-30 15:06 | -22.78246 | -43.30905 | 1045 ft | 148 kts | 126° |
| 2026-04-30 15:07 | -22.79449 | -43.29090 | 671 ft | 151 kts | 126° |
| 2026-04-30 15:07 | -22.80695 | -43.27183 | 271 ft | 160 kts | 125° |
| 2026-04-30 15:08 | -22.81967 | -43.25281 | 27 ft | 139 kts | 126° |
| 2026-04-30 15:08 | -22.82599 | -43.24206 | 20 ft | 9 kts | 36° |
| 2026-04-30 15:09 | -22.82523 | -43.24177 | 22 ft | 7 kts | 337° |
| 2026-04-30 15:09 | -22.82457 | -43.24260 | 20 ft | 8 kts | 306° |
| 2026-04-30 15:10 | -22.82376 | -43.24383 | 17 ft | 12 kts | 305° |
| 2026-04-30 15:11 | -22.82190 | -43.24663 | 18 ft | 9 kts | 306° |
| 2026-04-30 15:11 | -22.82091 | -43.24716 | 19 ft | 9 kts | 28° |
| 2026-04-30 15:12 | -22.81916 | -43.24607 | 20 ft | 11 kts | 354° |
| 2026-04-30 15:13 | -22.81774 | -43.24561 | 22 ft | 11 kts | 340° |
| 2026-04-30 15:14 | -22.81627 | -43.24738 | 21 ft | 6 kts | 305° |
| 2026-04-30 15:14 | -22.81553 | -43.24821 | 21 ft | 4 kts | 37° |
| 2026-04-30 15:16 | -22.81516 | -43.24787 | 21 ft | 0 kts | 38° |